Home > Products > Valid Products > TAF

000
FTUS45 KLKN 301720
TAFEKO
TAF
KEKO 301720Z 3018/3118 08006KT P6SM FEW070 SCT090 BKN200
     FM302000 23015G24KT P6SM VCTS SCT090CB BKN200
     FM310130 VRB04KT P6SM SCT200=



000
FTUS45 KLKN 301720
TAFTPH
TAF
KTPH 301720Z 3018/3118 36006KT P6SM FEW200
     FM301830 19014G23KT P6SM BKN200
     FM310130 19008KT P6SM SCT200=



000
FTUS45 KLKN 301720
TAFEKO
TAF
KEKO 301720Z 3018/3118 08006KT P6SM FEW070 SCT090 BKN200
     FM302000 23015G24KT P6SM VCTS SCT090CB BKN200
     FM310130 VRB04KT P6SM SCT200=



000
FTUS45 KLKN 301720
TAFTPH
TAF
KTPH 301720Z 3018/3118 36006KT P6SM FEW200
     FM301830 19014G23KT P6SM BKN200
     FM310130 19008KT P6SM SCT200=



000
FTUS45 KLKN 301720
TAFWMC
TAF
KWMC 301720Z 3018/3118 VRB06KT P6SM BKN200
     FM301930 23012G22KT P6SM BKN200
     FM310130 VRB05KT P6SM SCT200=



000
FTUS45 KLKN 301720
TAFWMC
TAF
KWMC 301720Z 3018/3118 VRB06KT P6SM BKN200
     FM301930 23012G22KT P6SM BKN200
     FM310130 VRB05KT P6SM SCT200=



000
FTUS45 KLKN 301720
TAFTPH
TAF
KTPH 301720Z 3018/3118 36006KT P6SM FEW200
     FM301830 19014G23KT P6SM BKN200
     FM310130 19008KT P6SM SCT200=



000
FTUS45 KLKN 301720
TAFEKO
TAF
KEKO 301720Z 3018/3118 08006KT P6SM FEW070 SCT090 BKN200
     FM302000 23015G24KT P6SM VCTS SCT090CB BKN200
     FM310130 VRB04KT P6SM SCT200=



000
FTUS45 KLKN 301720
TAFELY
TAF
KELY 301720Z 3018/3118 VRB06KT P6SM BKN110 BKN200
     FM301900 19015G25KT P6SM SCT100 BKN200
     FM310200 19010KT P6SM SCT200=



000
FTUS45 KLKN 301720
TAFEKO
TAF
KEKO 301720Z 3018/3118 08006KT P6SM FEW070 SCT090 BKN200
     FM302000 23015G24KT P6SM VCTS SCT090CB BKN200
     FM310130 VRB04KT P6SM SCT200=



000
FTUS45 KLKN 301720
TAFELY
TAF
KELY 301720Z 3018/3118 VRB06KT P6SM BKN110 BKN200
     FM301900 19015G25KT P6SM SCT100 BKN200
     FM310200 19010KT P6SM SCT200=



000
FTUS45 KLKN 301720
TAFWMC
TAF
KWMC 301720Z 3018/3118 VRB06KT P6SM BKN200
     FM301930 23012G22KT P6SM BKN200
     FM310130 VRB05KT P6SM SCT200=



000
FTUS45 KLKN 301720
TAFWMC
TAF
KWMC 301720Z 3018/3118 VRB06KT P6SM BKN200
     FM301930 23012G22KT P6SM BKN200
     FM310130 VRB05KT P6SM SCT200=



000
FTUS45 KLKN 301720
TAFELY
TAF
KELY 301720Z 3018/3118 VRB06KT P6SM BKN110 BKN200
     FM301900 19015G25KT P6SM SCT100 BKN200
     FM310200 19010KT P6SM SCT200=



000
FTUS45 KLKN 301720
TAFTPH
TAF
KTPH 301720Z 3018/3118 36006KT P6SM FEW200
     FM301830 19014G23KT P6SM BKN200
     FM310130 19008KT P6SM SCT200=



000
FTUS45 KLKN 301720
TAFELY
TAF
KELY 301720Z 3018/3118 VRB06KT P6SM BKN110 BKN200
     FM301900 19015G25KT P6SM SCT100 BKN200
     FM310200 19010KT P6SM SCT200=



000
FTUS45 KLKN 301120
TAFTPH
TAF
KTPH 301120Z 3012/3112 36006KT P6SM FEW200
     FM301830 19014G23KT P6SM BKN200
     FM310130 19008KT P6SM SCT200=



000
FTUS45 KLKN 301120
TAFTPH
TAF
KTPH 301120Z 3012/3112 36006KT P6SM FEW200
     FM301830 19014G23KT P6SM BKN200
     FM310130 19008KT P6SM SCT200=



000
FTUS45 KLKN 301120
TAFELY
TAF
KELY 301120Z 3012/3112 VRB06KT P6SM BKN110 BKN200
     FM301630 19015G25KT P6SM SCT100 BKN200
     FM310200 19010KT P6SM SCT200=



000
FTUS45 KLKN 301120
TAFEKO
TAF
KEKO 301120Z 3012/3112 08006KT P6SM FEW070 SCT090 BKN200
     FM302000 23015G24KT P6SM VCTS SCT090CB BKN200
     FM310130 VRB04KT P6SM SCT200=



000
FTUS45 KLKN 301120
TAFEKO
TAF
KEKO 301120Z 3012/3112 08006KT P6SM FEW070 SCT090 BKN200
     FM302000 23015G24KT P6SM VCTS SCT090CB BKN200
     FM310130 VRB04KT P6SM SCT200=



000
FTUS45 KLKN 301120
TAFWMC
TAF
KWMC 301120Z 3012/3112 VRB06KT P6SM BKN200
     FM301930 23012G22KT P6SM BKN200
     FM310130 VRB05KT P6SM SCT200=



000
FTUS45 KLKN 301120
TAFELY
TAF
KELY 301120Z 3012/3112 VRB06KT P6SM BKN110 BKN200
     FM301630 19015G25KT P6SM SCT100 BKN200
     FM310200 19010KT P6SM SCT200=



000
FTUS45 KLKN 301120
TAFTPH
TAF
KTPH 301120Z 3012/3112 36006KT P6SM FEW200
     FM301830 19014G23KT P6SM BKN200
     FM310130 19008KT P6SM SCT200=



000
FTUS45 KLKN 301120
TAFELY
TAF
KELY 301120Z 3012/3112 VRB06KT P6SM BKN110 BKN200
     FM301630 19015G25KT P6SM SCT100 BKN200
     FM310200 19010KT P6SM SCT200=



000
FTUS45 KLKN 301120
TAFWMC
TAF
KWMC 301120Z 3012/3112 VRB06KT P6SM BKN200
     FM301930 23012G22KT P6SM BKN200
     FM310130 VRB05KT P6SM SCT200=



000
FTUS45 KLKN 301120
TAFWMC
TAF
KWMC 301120Z 3012/3112 VRB06KT P6SM BKN200
     FM301930 23012G22KT P6SM BKN200
     FM310130 VRB05KT P6SM SCT200=



000
FTUS45 KLKN 301120
TAFTPH
TAF
KTPH 301120Z 3012/3112 36006KT P6SM FEW200
     FM301830 19014G23KT P6SM BKN200
     FM310130 19008KT P6SM SCT200=



000
FTUS45 KLKN 301120
TAFELY
TAF
KELY 301120Z 3012/3112 VRB06KT P6SM BKN110 BKN200
     FM301630 19015G25KT P6SM SCT100 BKN200
     FM310200 19010KT P6SM SCT200=



000
FTUS45 KLKN 301120
TAFEKO
TAF
KEKO 301120Z 3012/3112 08006KT P6SM FEW070 SCT090 BKN200
     FM302000 23015G24KT P6SM VCTS SCT090CB BKN200
     FM310130 VRB04KT P6SM SCT200=



000
FTUS45 KLKN 301120
TAFEKO
TAF
KEKO 301120Z 3012/3112 08006KT P6SM FEW070 SCT090 BKN200
     FM302000 23015G24KT P6SM VCTS SCT090CB BKN200
     FM310130 VRB04KT P6SM SCT200=



000
FTUS45 KLKN 301120
TAFWMC
TAF
KWMC 301120Z 3012/3112 VRB06KT P6SM BKN200
     FM301930 23012G22KT P6SM BKN200
     FM310130 VRB05KT P6SM SCT200=



000
FTUS45 KLKN 300530
TAFEKO
TAF
KEKO 300530Z 3006/3106 07004KT P6SM SCT090 BKN200
     FM302000 23015G24KT P6SM SCT090 BKN200
     FM310130 VRB04KT P6SM SCT200=



000
FTUS45 KLKN 300530
TAFWMC
TAF
KWMC 300530Z 3006/3106 VRB03KT P6SM BKN200
     FM301930 23012G22KT P6SM BKN200
     FM310130 25005KT P6SM SCT200=



000
FTUS45 KLKN 300530
TAFEKO
TAF
KEKO 300530Z 3006/3106 07004KT P6SM SCT090 BKN200
     FM302000 23015G24KT P6SM SCT090 BKN200
     FM310130 VRB04KT P6SM SCT200=



000
FTUS45 KLKN 300530
TAFELY
TAF
KELY 300530Z 3006/3106 19011KT P6SM BKN110
     FM300800 18008KT P6SM SCT110 BKN200
     FM301630 19015G25KT P6SM SCT090 BKN200
     FM310200 19010KT P6SM SCT200=



000
FTUS45 KLKN 300530
TAFTPH
TAF
KTPH 300530Z 3006/3106 19009KT P6SM FEW120
     FM300700 02006KT P6SM FEW200
     FM301830 19014G23KT P6SM BKN200
     FM310130 19008KT P6SM SCT200=



000
FTUS45 KLKN 300530
TAFWMC
TAF
KWMC 300530Z 3006/3106 VRB03KT P6SM BKN200
     FM301930 23012G22KT P6SM BKN200
     FM310130 25005KT P6SM SCT200=



000
FTUS45 KLKN 300530
TAFELY
TAF
KELY 300530Z 3006/3106 19011KT P6SM BKN110
     FM300800 18008KT P6SM SCT110 BKN200
     FM301630 19015G25KT P6SM SCT090 BKN200
     FM310200 19010KT P6SM SCT200=



000
FTUS45 KLKN 300530
TAFTPH
TAF
KTPH 300530Z 3006/3106 19009KT P6SM FEW120
     FM300700 02006KT P6SM FEW200
     FM301830 19014G23KT P6SM BKN200
     FM310130 19008KT P6SM SCT200=



000
FTUS45 KLKN 300205 AAA
TAFELY
TAF AMD
KELY 300205Z 3002/3024 21007KT P6SM BKN080
     FM300300 18010KT P6SM FEW100
     FM301900 19013G23KT P6SM FEW120=



000
FTUS45 KLKN 300205 AAA
TAFELY
TAF AMD
KELY 300205Z 3002/3024 21007KT P6SM BKN080
     FM300300 18010KT P6SM FEW100
     FM301900 19013G23KT P6SM FEW120=



000
FTUS45 KLKN 292320
TAFWMC
TAF
KWMC 292320Z 3000/3024 VRB05KT P6SM FEW100
     FM302000 23012G22KT P6SM SCT200=



000
FTUS45 KLKN 292320
TAFTPH
TAF
KTPH 292320Z 3000/3024 19010G20KT P6SM SCT120
     FM300200 19009KT P6SM FEW120
     FM300700 02006KT P6SM SKC
     FM302000 19012G20KT P6SM SKC=



000
FTUS45 KLKN 292320
TAFELY
TAF
KELY 292320Z 3000/3024 29007KT P6SM VCTS SCT080CB
     FM300300 18010KT P6SM FEW100
     FM301900 19013G23KT P6SM FEW120=



000
FTUS45 KLKN 292320
TAFWMC
TAF
KWMC 292320Z 3000/3024 VRB05KT P6SM FEW100
     FM302000 23012G22KT P6SM SCT200=



000
FTUS45 KLKN 292320
TAFTPH
TAF
KTPH 292320Z 3000/3024 19010G20KT P6SM SCT120
     FM300200 19009KT P6SM FEW120
     FM300700 02006KT P6SM SKC
     FM302000 19012G20KT P6SM SKC=



000
FTUS45 KLKN 292320
TAFELY
TAF
KELY 292320Z 3000/3024 29007KT P6SM VCTS SCT080CB
     FM300300 18010KT P6SM FEW100
     FM301900 19013G23KT P6SM FEW120=



000
FTUS45 KLKN 292320
TAFEKO
TAF
KEKO 292320Z 3000/3024 VRB05KT P6SM FEW090
     FM302000 23013G23KT P6SM SCT090=



000
FTUS45 KLKN 292320
TAFEKO
TAF
KEKO 292320Z 3000/3024 VRB05KT P6SM FEW090
     FM302000 23013G23KT P6SM SCT090=



000
FTUS45 KLKN 292236 AAA
TAFTPH
TAF AMD
KTPH 292236Z 2923/3018 19010G20KT P6SM SCT120
     FM300200 19009KT P6SM FEW120
     FM300700 02006KT P6SM SKC=



000
FTUS45 KLKN 292236 AAA
TAFTPH
TAF AMD
KTPH 292236Z 2923/3018 19010G20KT P6SM SCT120
     FM300200 19009KT P6SM FEW120
     FM300700 02006KT P6SM SKC=



000
FTUS45 KLKN 292236 AAA
TAFTPH
TAF AMD
KTPH 292236Z 2923/3018 19010G20KT P6SM SCT120
     FM300200 19009KT P6SM FEW120
     FM300700 02006KT P6SM SKC=



000
FTUS45 KLKN 292236 AAA
TAFTPH
TAF AMD
KTPH 292236Z 2923/3018 19010G20KT P6SM SCT120
     FM300200 19009KT P6SM FEW120
     FM300700 02006KT P6SM SKC=



000
FTUS45 KLKN 292004 AAA
TAFELY
TAF AMD
KELY 292004Z 2920/3018 VRB05KT P6SM VCTS SCT080CB
     FM300300 18010KT P6SM SCT100=



000
FTUS45 KLKN 292004 AAA
TAFELY
TAF AMD
KELY 292004Z 2920/3018 VRB05KT P6SM VCTS SCT080CB
     FM300300 18010KT P6SM SCT100=



000
FTUS45 KLKN 291720
TAFEKO
TAF
KEKO 291720Z 2918/3018 VRB05KT P6SM FEW090=



000
FTUS45 KLKN 291720
TAFTPH
TAF
KTPH 291720Z 2918/3018 19009KT P6SM FEW120
     FM300700 02006KT P6SM SKC=



000
FTUS45 KLKN 291720
TAFEKO
TAF
KEKO 291720Z 2918/3018 VRB05KT P6SM FEW090=



000
FTUS45 KLKN 291720
TAFWMC
TAF
KWMC 291720Z 2918/3018 VRB05KT P6SM FEW100=



000
FTUS45 KLKN 291720
TAFELY
TAF
KELY 291720Z 2918/3018 VRB05KT P6SM FEW080
     FM292100 17008KT P6SM VCTS SCT080CB
     FM300300 18010KT P6SM SCT100=



000
FTUS45 KLKN 291720
TAFEKO
TAF
KEKO 291720Z 2918/3018 VRB05KT P6SM FEW090=



000
FTUS45 KLKN 291720
TAFWMC
TAF
KWMC 291720Z 2918/3018 VRB05KT P6SM FEW100=



000
FTUS45 KLKN 291720
TAFEKO
TAF
KEKO 291720Z 2918/3018 VRB05KT P6SM FEW090=



000
FTUS45 KLKN 291720
TAFWMC
TAF
KWMC 291720Z 2918/3018 VRB05KT P6SM FEW100=



000
FTUS45 KLKN 291720
TAFELY
TAF
KELY 291720Z 2918/3018 VRB05KT P6SM FEW080
     FM292100 17008KT P6SM VCTS SCT080CB
     FM300300 18010KT P6SM SCT100=



000
FTUS45 KLKN 291720
TAFTPH
TAF
KTPH 291720Z 2918/3018 19009KT P6SM FEW120
     FM300700 02006KT P6SM SKC=



000
FTUS45 KLKN 291720
TAFWMC
TAF
KWMC 291720Z 2918/3018 VRB05KT P6SM FEW100=



000
FTUS45 KLKN 291720
TAFELY
TAF
KELY 291720Z 2918/3018 VRB05KT P6SM FEW080
     FM292100 17008KT P6SM VCTS SCT080CB
     FM300300 18010KT P6SM SCT100=



000
FTUS45 KLKN 291720
TAFELY
TAF
KELY 291720Z 2918/3018 VRB05KT P6SM FEW080
     FM292100 17008KT P6SM VCTS SCT080CB
     FM300300 18010KT P6SM SCT100=



000
FTUS45 KLKN 291720
TAFTPH
TAF
KTPH 291720Z 2918/3018 19009KT P6SM FEW120
     FM300700 02006KT P6SM SKC=



000
FTUS45 KLKN 291720
TAFTPH
TAF
KTPH 291720Z 2918/3018 19009KT P6SM FEW120
     FM300700 02006KT P6SM SKC=



000
FTUS45 KLKN 291120
TAFWMC
TAF
KWMC 291120Z 2912/3012 05007KT P6SM FEW100
     FM292000 20007KT P6SM FEW110 BKN200
     FM300300 07005KT P6SM BKN150=



000
FTUS45 KLKN 291120
TAFEKO
TAF
KEKO 291120Z 2912/3012 07005KT P6SM SCT090
     FM292000 20008KT P6SM FEW100
     FM300300 07006KT P6SM FEW100 SCT200=



000
FTUS45 KLKN 291120
TAFELY
TAF
KELY 291120Z 2912/3012 18008KT P6SM FEW100
     FM292100 18009KT P6SM VCTS SCT080CB
     FM300300 18008KT P6SM SCT100 BKN250=



000
FTUS45 KLKN 291120
TAFTPH
TAF
KTPH 291120Z 2912/3012 01007KT P6SM FEW120
     FM292000 19010G20KT P6SM FEW110 SCT200
     FM300400 36008KT P6SM SCT100=



000
FTUS45 KLKN 291120
TAFEKO
TAF
KEKO 291120Z 2912/3012 07005KT P6SM SCT090
     FM292000 20008KT P6SM FEW100
     FM300300 07006KT P6SM FEW100 SCT200=



000
FTUS45 KLKN 291120
TAFELY
TAF
KELY 291120Z 2912/3012 18008KT P6SM FEW100
     FM292100 18009KT P6SM VCTS SCT080CB
     FM300300 18008KT P6SM SCT100 BKN250=



000
FTUS45 KLKN 291120
TAFEKO
TAF
KEKO 291120Z 2912/3012 07005KT P6SM SCT090
     FM292000 20008KT P6SM FEW100
     FM300300 07006KT P6SM FEW100 SCT200=



000
FTUS45 KLKN 291120
TAFTPH
TAF
KTPH 291120Z 2912/3012 01007KT P6SM FEW120
     FM292000 19010G20KT P6SM FEW110 SCT200
     FM300400 36008KT P6SM SCT100=



000
FTUS45 KLKN 291120
TAFWMC
TAF
KWMC 291120Z 2912/3012 05007KT P6SM FEW100
     FM292000 20007KT P6SM FEW110 BKN200
     FM300300 07005KT P6SM BKN150=



000
FTUS45 KLKN 291120
TAFWMC
TAF
KWMC 291120Z 2912/3012 05007KT P6SM FEW100
     FM292000 20007KT P6SM FEW110 BKN200
     FM300300 07005KT P6SM BKN150=



000
FTUS45 KLKN 291120
TAFTPH
TAF
KTPH 291120Z 2912/3012 01007KT P6SM FEW120
     FM292000 19010G20KT P6SM FEW110 SCT200
     FM300400 36008KT P6SM SCT100=



000
FTUS45 KLKN 291120
TAFELY
TAF
KELY 291120Z 2912/3012 18008KT P6SM FEW100
     FM292100 18009KT P6SM VCTS SCT080CB
     FM300300 18008KT P6SM SCT100 BKN250=



000
FTUS45 KLKN 291120
TAFELY
TAF
KELY 291120Z 2912/3012 18008KT P6SM FEW100
     FM292100 18009KT P6SM VCTS SCT080CB
     FM300300 18008KT P6SM SCT100 BKN250=



000
FTUS45 KLKN 291120
TAFEKO
TAF
KEKO 291120Z 2912/3012 07005KT P6SM SCT090
     FM292000 20008KT P6SM FEW100
     FM300300 07006KT P6SM FEW100 SCT200=



000
FTUS45 KLKN 291120
TAFTPH
TAF
KTPH 291120Z 2912/3012 01007KT P6SM FEW120
     FM292000 19010G20KT P6SM FEW110 SCT200
     FM300400 36008KT P6SM SCT100=



000
FTUS45 KLKN 291120
TAFWMC
TAF
KWMC 291120Z 2912/3012 05007KT P6SM FEW100
     FM292000 20007KT P6SM FEW110 BKN200
     FM300300 07005KT P6SM BKN150=



000
FTUS45 KLKN 290520
TAFTPH
TAF
KTPH 290520Z 2906/3006 36007KT P6SM FEW120
     FM292000 19010G20KT P6SM SCT200
     FM300400 36008KT P6SM SCT100=



000
FTUS45 KLKN 290520
TAFELY
TAF
KELY 290520Z 2906/3006 18008KT P6SM FEW100
     FM292100 18009KT P6SM VCTS SCT080CB
     FM300300 18008KT P6SM SCT090 BKN250=



000
FTUS45 KLKN 290520
TAFWMC
TAF
KWMC 290520Z 2906/3006 05007KT P6SM FEW100
     FM292000 17007KT P6SM FEW100 BKN250
     FM300300 05005KT P6SM SCT150=



000
FTUS45 KLKN 290520
TAFEKO
TAF
KEKO 290520Z 2906/3006 07005KT P6SM FEW090
     FM292000 20008KT P6SM FEW090
     FM300300 07006KT P6SM SCT100 SCT250=



000
FTUS45 KLKN 290520
TAFELY
TAF
KELY 290520Z 2906/3006 18008KT P6SM FEW100
     FM292100 18009KT P6SM VCTS SCT080CB
     FM300300 18008KT P6SM SCT090 BKN250=



000
FTUS45 KLKN 290520
TAFELY
TAF
KELY 290520Z 2906/3006 18008KT P6SM FEW100
     FM292100 18009KT P6SM VCTS SCT080CB
     FM300300 18008KT P6SM SCT090 BKN250=



000
FTUS45 KLKN 290520
TAFTPH
TAF
KTPH 290520Z 2906/3006 36007KT P6SM FEW120
     FM292000 19010G20KT P6SM SCT200
     FM300400 36008KT P6SM SCT100=



000
FTUS45 KLKN 290520
TAFWMC
TAF
KWMC 290520Z 2906/3006 05007KT P6SM FEW100
     FM292000 17007KT P6SM FEW100 BKN250
     FM300300 05005KT P6SM SCT150=



000
FTUS45 KLKN 290520
TAFEKO
TAF
KEKO 290520Z 2906/3006 07005KT P6SM FEW090
     FM292000 20008KT P6SM FEW090
     FM300300 07006KT P6SM SCT100 SCT250=



000
FTUS45 KLKN 290520
TAFTPH
TAF
KTPH 290520Z 2906/3006 36007KT P6SM FEW120
     FM292000 19010G20KT P6SM SCT200
     FM300400 36008KT P6SM SCT100=



000
FTUS45 KLKN 290520
TAFWMC
TAF
KWMC 290520Z 2906/3006 05007KT P6SM FEW100
     FM292000 17007KT P6SM FEW100 BKN250
     FM300300 05005KT P6SM SCT150=



000
FTUS45 KLKN 290520
TAFELY
TAF
KELY 290520Z 2906/3006 18008KT P6SM FEW100
     FM292100 18009KT P6SM VCTS SCT080CB
     FM300300 18008KT P6SM SCT090 BKN250=



000
FTUS45 KLKN 290520
TAFTPH
TAF
KTPH 290520Z 2906/3006 36007KT P6SM FEW120
     FM292000 19010G20KT P6SM SCT200
     FM300400 36008KT P6SM SCT100=



000
FTUS45 KLKN 282322
TAFTPH
TAF
KTPH 282322Z 2900/2924 VRB04KT P6SM FEW100
     FM290300 36007KT P6SM SCT200
     FM291900 19010G20KT P6SM SCT200=



000
FTUS45 KLKN 282322
TAFELY
TAF
KELY 282322Z 2900/2924 34008KT P6SM SCT090
     FM290500 18008KT P6SM FEW100
     FM292100 21008KT P6SM VCTS SCT080CB=



000
FTUS45 KLKN 282322
TAFELY
TAF
KELY 282322Z 2900/2924 34008KT P6SM SCT090
     FM290500 18008KT P6SM FEW100
     FM292100 21008KT P6SM VCTS SCT080CB=



000
FTUS45 KLKN 282322
TAFEKO
TAF
KEKO 282322Z 2900/2924 VRB05KT P6SM SCT090=



000
FTUS45 KLKN 282322
TAFWMC
TAF
KWMC 282322Z 2900/2924 26008KT P6SM FEW090
     FM290300 05007KT P6SM FEW100=



000
FTUS45 KLKN 282322
TAFTPH
TAF
KTPH 282322Z 2900/2924 VRB04KT P6SM FEW100
     FM290300 36007KT P6SM SCT200
     FM291900 19010G20KT P6SM SCT200=



000
FTUS45 KLKN 282322
TAFWMC
TAF
KWMC 282322Z 2900/2924 26008KT P6SM FEW090
     FM290300 05007KT P6SM FEW100=



000
FTUS45 KLKN 282322
TAFEKO
TAF
KEKO 282322Z 2900/2924 VRB05KT P6SM SCT090=



000
FTUS45 KLKN 281952 AAA
TAFEKO
TAF AMD
KEKO 281952Z 2820/2918 25009G16KT P6SM VCTS SCT070 BKN100CB
     FM282300 27009G17KT P6SM SCT090
     FM290300 05005KT P6SM FEW080 SCT250=



000
FTUS45 KLKN 281952 AAA
TAFEKO
TAF AMD
KEKO 281952Z 2820/2918 25009G16KT P6SM VCTS SCT070 BKN100CB
     FM282300 27009G17KT P6SM SCT090
     FM290300 05005KT P6SM FEW080 SCT250=



000
FTUS45 KLKN 281952 AAA
TAFEKO
TAF AMD
KEKO 281952Z 2820/2918 25009G16KT P6SM VCTS SCT070 BKN100CB
     FM282300 27009G17KT P6SM SCT090
     FM290300 05005KT P6SM FEW080 SCT250=



000
FTUS45 KLKN 281952 AAA
TAFEKO
TAF AMD
KEKO 281952Z 2820/2918 25009G16KT P6SM VCTS SCT070 BKN100CB
     FM282300 27009G17KT P6SM SCT090
     FM290300 05005KT P6SM FEW080 SCT250=



000
FTUS45 KLKN 281720
TAFTPH
TAF
KTPH 281720Z 2818/2918 VRB03KT P6SM SKC
     FM282000 27009G17KT P6SM FEW090 SCT200
     FM290300 32007KT P6SM FEW100 SCT200=



000
FTUS45 KLKN 281720
TAFTPH
TAF
KTPH 281720Z 2818/2918 VRB03KT P6SM SKC
     FM282000 27009G17KT P6SM FEW090 SCT200
     FM290300 32007KT P6SM FEW100 SCT200=



000
FTUS45 KLKN 281720
TAFTPH
TAF
KTPH 281720Z 2818/2918 VRB03KT P6SM SKC
     FM282000 27009G17KT P6SM FEW090 SCT200
     FM290300 32007KT P6SM FEW100 SCT200=



000
FTUS45 KLKN 281720
TAFWMC
TAF
KWMC 281720Z 2818/2918 35006KT P6SM SKC
     FM282000 32008KT P6SM FEW090
     FM290300 05006KT P6SM FEW090 SCT250=



000
FTUS45 KLKN 281720
TAFWMC
TAF
KWMC 281720Z 2818/2918 35006KT P6SM SKC
     FM282000 32008KT P6SM FEW090
     FM290300 05006KT P6SM FEW090 SCT250=



000
FTUS45 KLKN 281720
TAFELY
TAF
KELY 281720Z 2818/2918 29005KT P6SM FEW070
     FM282100 31009G15KT P6SM VCTS SCT090CB
     FM290400 17007KT P6SM SCT080 BKN200=



000
FTUS45 KLKN 281720
TAFEKO
TAF
KEKO 281720Z 2818/2918 25006KT P6SM FEW080
     FM282100 27009G17KT P6SM SCT090
     FM290300 05005KT P6SM FEW080 SCT250=



000
FTUS45 KLKN 281720
TAFEKO
TAF
KEKO 281720Z 2818/2918 25006KT P6SM FEW080
     FM282100 27009G17KT P6SM SCT090
     FM290300 05005KT P6SM FEW080 SCT250=



000
FTUS45 KLKN 281720
TAFWMC
TAF
KWMC 281720Z 2818/2918 35006KT P6SM SKC
     FM282000 32008KT P6SM FEW090
     FM290300 05006KT P6SM FEW090 SCT250=



000
FTUS45 KLKN 281720
TAFELY
TAF
KELY 281720Z 2818/2918 29005KT P6SM FEW070
     FM282100 31009G15KT P6SM VCTS SCT090CB
     FM290400 17007KT P6SM SCT080 BKN200=



000
FTUS45 KLKN 281720
TAFEKO
TAF
KEKO 281720Z 2818/2918 25006KT P6SM FEW080
     FM282100 27009G17KT P6SM SCT090
     FM290300 05005KT P6SM FEW080 SCT250=



000
FTUS45 KLKN 281720
TAFEKO
TAF
KEKO 281720Z 2818/2918 25006KT P6SM FEW080
     FM282100 27009G17KT P6SM SCT090
     FM290300 05005KT P6SM FEW080 SCT250=



000
FTUS45 KLKN 281720
TAFELY
TAF
KELY 281720Z 2818/2918 29005KT P6SM FEW070
     FM282100 31009G15KT P6SM VCTS SCT090CB
     FM290400 17007KT P6SM SCT080 BKN200=



000
FTUS45 KLKN 281720
TAFWMC
TAF
KWMC 281720Z 2818/2918 35006KT P6SM SKC
     FM282000 32008KT P6SM FEW090
     FM290300 05006KT P6SM FEW090 SCT250=



000
FTUS45 KLKN 281720
TAFTPH
TAF
KTPH 281720Z 2818/2918 VRB03KT P6SM SKC
     FM282000 27009G17KT P6SM FEW090 SCT200
     FM290300 32007KT P6SM FEW100 SCT200=



000
FTUS45 KLKN 281720
TAFELY
TAF
KELY 281720Z 2818/2918 29005KT P6SM FEW070
     FM282100 31009G15KT P6SM VCTS SCT090CB
     FM290400 17007KT P6SM SCT080 BKN200=



000
FTUS45 KLKN 281120
TAFEKO
TAF
KEKO 281120Z 2812/2912 VRB06KT P6SM SCT080
     FM282100 27008G18KT P6SM SCT070
     FM290300 05005KT P6SM FEW080 SCT250=



000
FTUS45 KLKN 281120
TAFELY
TAF
KELY 281120Z 2812/2912 17008KT P6SM FEW050 SCT080
     FM282100 31009KT P6SM VCTS SCT070CB
     FM290400 17007KT P6SM SCT080 BKN200=



000
FTUS45 KLKN 281120
TAFWMC
TAF
KWMC 281120Z 2812/2912 VRB06KT P6SM FEW100
     FM282000 32008KT P6SM FEW070
     FM290300 05006KT P6SM FEW090 SCT250=



000
FTUS45 KLKN 281120
TAFELY
TAF
KELY 281120Z 2812/2912 17008KT P6SM FEW050 SCT080
     FM282100 31009KT P6SM VCTS SCT070CB
     FM290400 17007KT P6SM SCT080 BKN200=



000
FTUS45 KLKN 281120
TAFEKO
TAF
KEKO 281120Z 2812/2912 VRB06KT P6SM SCT080
     FM282100 27008G18KT P6SM SCT070
     FM290300 05005KT P6SM FEW080 SCT250=



000
FTUS45 KLKN 281120
TAFWMC
TAF
KWMC 281120Z 2812/2912 VRB06KT P6SM FEW100
     FM282000 32008KT P6SM FEW070
     FM290300 05006KT P6SM FEW090 SCT250=



000
FTUS45 KLKN 281120
TAFTPH
TAF
KTPH 281120Z 2812/2912 01010KT P6SM SKC
     FM282000 30010G20KT P6SM FEW080 BKN200
     FM290300 35007KT P6SM FEW100 BKN200=



000
FTUS45 KLKN 281120
TAFELY
TAF
KELY 281120Z 2812/2912 17008KT P6SM FEW050 SCT080
     FM282100 31009KT P6SM VCTS SCT070CB
     FM290400 17007KT P6SM SCT080 BKN200=



000
FTUS45 KLKN 281120
TAFTPH
TAF
KTPH 281120Z 2812/2912 01010KT P6SM SKC
     FM282000 30010G20KT P6SM FEW080 BKN200
     FM290300 35007KT P6SM FEW100 BKN200=



000
FTUS45 KLKN 281120
TAFTPH
TAF
KTPH 281120Z 2812/2912 01010KT P6SM SKC
     FM282000 30010G20KT P6SM FEW080 BKN200
     FM290300 35007KT P6SM FEW100 BKN200=



000
FTUS45 KLKN 281120
TAFELY
TAF
KELY 281120Z 2812/2912 17008KT P6SM FEW050 SCT080
     FM282100 31009KT P6SM VCTS SCT070CB
     FM290400 17007KT P6SM SCT080 BKN200=



000
FTUS45 KLKN 281120
TAFTPH
TAF
KTPH 281120Z 2812/2912 01010KT P6SM SKC
     FM282000 30010G20KT P6SM FEW080 BKN200
     FM290300 35007KT P6SM FEW100 BKN200=



000
FTUS45 KLKN 281120
TAFEKO
TAF
KEKO 281120Z 2812/2912 VRB06KT P6SM SCT080
     FM282100 27008G18KT P6SM SCT070
     FM290300 05005KT P6SM FEW080 SCT250=



000
FTUS45 KLKN 281120
TAFWMC
TAF
KWMC 281120Z 2812/2912 VRB06KT P6SM FEW100
     FM282000 32008KT P6SM FEW070
     FM290300 05006KT P6SM FEW090 SCT250=



000
FTUS45 KLKN 281120
TAFWMC
TAF
KWMC 281120Z 2812/2912 VRB06KT P6SM FEW100
     FM282000 32008KT P6SM FEW070
     FM290300 05006KT P6SM FEW090 SCT250=



000
FTUS45 KLKN 281120
TAFEKO
TAF
KEKO 281120Z 2812/2912 VRB06KT P6SM SCT080
     FM282100 27008G18KT P6SM SCT070
     FM290300 05005KT P6SM FEW080 SCT250=



000
FTUS45 KLKN 280520
TAFWMC
TAF
KWMC 280520Z 2806/2906 VRB06KT P6SM FEW120
     FM282000 32008KT P6SM FEW080
     FM290300 05006KT P6SM FEW090 SCT200=



000
FTUS45 KLKN 280520
TAFWMC
TAF
KWMC 280520Z 2806/2906 VRB06KT P6SM FEW120
     FM282000 32008KT P6SM FEW080
     FM290300 05006KT P6SM FEW090 SCT200=



000
FTUS45 KLKN 280520
TAFEKO
TAF
KEKO 280520Z 2806/2906 08004KT P6SM FEW090
     FM282100 27009G19KT P6SM SCT070
     FM290300 05005KT P6SM SCT070=



000
FTUS45 KLKN 280520
TAFELY
TAF
KELY 280520Z 2806/2906 18008KT P6SM FEW050
     FM282100 31009KT P6SM VCTS SCT070CB
     FM290400 17007KT P6SM SCT080 BKN200=



000
FTUS45 KLKN 280520
TAFEKO
TAF
KEKO 280520Z 2806/2906 08004KT P6SM FEW090
     FM282100 27009G19KT P6SM SCT070
     FM290300 05005KT P6SM SCT070=



000
FTUS45 KLKN 280520
TAFTPH
TAF
KTPH 280520Z 2806/2906 35007KT P6SM SCT100
     FM282000 30010G20KT P6SM FEW080 BKN200
     FM290300 35007KT P6SM BKN180=



000
FTUS45 KLKN 280520
TAFTPH
TAF
KTPH 280520Z 2806/2906 35007KT P6SM SCT100
     FM282000 30010G20KT P6SM FEW080 BKN200
     FM290300 35007KT P6SM BKN180=



000
FTUS45 KLKN 280520
TAFELY
TAF
KELY 280520Z 2806/2906 18008KT P6SM FEW050
     FM282100 31009KT P6SM VCTS SCT070CB
     FM290400 17007KT P6SM SCT080 BKN200=



000
FTUS45 KLKN 272320
TAFELY
TAF
KELY 272320Z 2800/2824 27007KT P6SM VCTS BKN060CB
      TEMPO 2800/2802 VRB15G30KT 4SM TSRA BKN050CB
     FM280400 18007KT P6SM SCT080
     FM282100 32008KT P6SM VCTS SCT080CB=



000
FTUS45 KLKN 272320
TAFTPH
TAF
KTPH 272320Z 2800/2824 25010G17KT P6SM SCT090
     FM280300 35007KT P6SM FEW100=



000
FTUS45 KLKN 272320
TAFELY
TAF
KELY 272320Z 2800/2824 27007KT P6SM VCTS BKN060CB
      TEMPO 2800/2802 VRB15G30KT 4SM TSRA BKN050CB
     FM280400 18007KT P6SM SCT080
     FM282100 32008KT P6SM VCTS SCT080CB=



000
FTUS45 KLKN 272320
TAFEKO
TAF
KEKO 272320Z 2800/2824 27010KT P6SM SCT100
     FM280300 VRB03KT P6SM SCT100
     FM282100 25009G18KT P6SM SCT100=



000
FTUS45 KLKN 272320
TAFTPH
TAF
KTPH 272320Z 2800/2824 25010G17KT P6SM SCT090
     FM280300 35007KT P6SM FEW100=



000
FTUS45 KLKN 272320
TAFEKO
TAF
KEKO 272320Z 2800/2824 27010KT P6SM SCT100
     FM280300 VRB03KT P6SM SCT100
     FM282100 25009G18KT P6SM SCT100=



000
FTUS45 KLKN 272320
TAFWMC
TAF
KWMC 272320Z 2800/2824 VRB06KT P6SM SCT120=



000
FTUS45 KLKN 272320
TAFWMC
TAF
KWMC 272320Z 2800/2824 VRB06KT P6SM SCT120=



000
FTUS45 KLKN 272320
TAFELY
TAF
KELY 272320Z 2800/2824 27007KT P6SM VCTS BKN060CB
      TEMPO 2800/2802 VRB15G30KT 4SM TSRA BKN050CB
     FM280400 18007KT P6SM SCT080
     FM282100 32008KT P6SM VCTS SCT080CB=



000
FTUS45 KLKN 272320
TAFEKO
TAF
KEKO 272320Z 2800/2824 27010KT P6SM SCT100
     FM280300 VRB03KT P6SM SCT100
     FM282100 25009G18KT P6SM SCT100=



000
FTUS45 KLKN 272320
TAFTPH
TAF
KTPH 272320Z 2800/2824 25010G17KT P6SM SCT090
     FM280300 35007KT P6SM FEW100=



000
FTUS45 KLKN 272320
TAFTPH
TAF
KTPH 272320Z 2800/2824 25010G17KT P6SM SCT090
     FM280300 35007KT P6SM FEW100=



000
FTUS45 KLKN 272320
TAFWMC
TAF
KWMC 272320Z 2800/2824 VRB06KT P6SM SCT120=



000
FTUS45 KLKN 272320
TAFWMC
TAF
KWMC 272320Z 2800/2824 VRB06KT P6SM SCT120=



000
FTUS45 KLKN 272320
TAFEKO
TAF
KEKO 272320Z 2800/2824 27010KT P6SM SCT100
     FM280300 VRB03KT P6SM SCT100
     FM282100 25009G18KT P6SM SCT100=



000
FTUS45 KLKN 272320
TAFELY
TAF
KELY 272320Z 2800/2824 27007KT P6SM VCTS BKN060CB
      TEMPO 2800/2802 VRB15G30KT 4SM TSRA BKN050CB
     FM280400 18007KT P6SM SCT080
     FM282100 32008KT P6SM VCTS SCT080CB=



000
FTUS45 KLKN 272158 AAA
TAFEKO
TAF AMD
KEKO 272158Z 2722/2818 27010G20KT P6SM SCT080
     FM280300 VRB03KT P6SM SCT100=



000
FTUS45 KLKN 272055 AAA
TAFTPH
TAF AMD
KTPH 272055Z 2721/2818 24008KT P6SM SCT090
     FM280500 36009KT P6SM FEW080=



000
FTUS45 KLKN 272055 AAA
TAFTPH
TAF AMD
KTPH 272055Z 2721/2818 24008KT P6SM SCT090
     FM280500 36009KT P6SM FEW080=



000
FTUS45 KLKN 272051 AAA
TAFELY
TAF AMD
KELY 272051Z 2721/2818 20007KT P6SM VCTS BKN060CB
      TEMPO 2721/2723 VRB15G30KT 2SM TSRA BKN040CB
     FM280400 19009KT P6SM SCT070=



000
FTUS45 KLKN 272051 AAA
TAFELY
TAF AMD
KELY 272051Z 2721/2818 20007KT P6SM VCTS BKN060CB
      TEMPO 2721/2723 VRB15G30KT 2SM TSRA BKN040CB
     FM280400 19009KT P6SM SCT070=



    US Dept of Commerce
    National Oceanic and Atmospheric Administration
    National Weather Service
    1325 East West Highway
    Silver Spring, MD 20910
    Page Author: NWS Internet Services Team
Disclaimer
Information Quality
Credits
Glossary
Privacy Policy
Freedom of Information Act (FOIA)
About Us
Career Opportunities